sensor_id;sensor_type;location;lat;lon;timestamp;P1;durP1;ratioP1;P2;durP2;ratioP2
22849;SDS011;11591;44.792;10.358;2023-04-06T00:01:51;7.13;;;4.18;;
22849;SDS011;11591;44.792;10.358;2023-04-06T00:04:17;7.70;;;4.03;;
22849;SDS011;11591;44.792;10.358;2023-04-06T00:06:42;8.80;;;4.18;;
22849;SDS011;11591;44.792;10.358;2023-04-06T00:09:08;8.70;;;4.45;;
22849;SDS011;11591;44.792;10.358;2023-04-06T00:11:34;9.52;;;4.10;;
22849;SDS011;11591;44.792;10.358;2023-04-06T00:14:00;7.88;;;4.07;;
22849;SDS011;11591;44.792;10.358;2023-04-06T00:16:26;6.80;;;3.85;;
22849;SDS011;11591;44.792;10.358;2023-04-06T00:18:51;6.80;;;3.72;;
22849;SDS011;11591;44.792;10.358;2023-04-06T00:21:17;8.30;;;4.22;;
22849;SDS011;11591;44.792;10.358;2023-04-06T00:23:43;8.35;;;4.55;;
22849;SDS011;11591;44.792;10.358;2023-04-06T00:26:09;7.90;;;3.90;;
22849;SDS011;11591;44.792;10.358;2023-04-06T00:28:43;7.18;;;3.70;;
22849;SDS011;11591;44.792;10.358;2023-04-06T00:31:08;8.45;;;4.00;;
22849;SDS011;11591;44.792;10.358;2023-04-06T00:33:34;9.88;;;4.10;;
22849;SDS011;11591;44.792;10.358;2023-04-06T00:36:00;8.27;;;4.00;;
22849;SDS011;11591;44.792;10.358;2023-04-06T00:38:26;9.68;;;4.18;;
22849;SDS011;11591;44.792;10.358;2023-04-06T00:40:52;13.38;;;4.30;;
22849;SDS011;11591;44.792;10.358;2023-04-06T00:43:18;6.97;;;3.67;;
22849;SDS011;11591;44.792;10.358;2023-04-06T00:45:43;5.93;;;3.72;;
22849;SDS011;11591;44.792;10.358;2023-04-06T00:48:09;7.47;;;3.75;;
22849;SDS011;11591;44.792;10.358;2023-04-06T00:50:35;7.45;;;3.63;;
22849;SDS011;11591;44.792;10.358;2023-04-06T00:53:01;7.55;;;3.58;;
22849;SDS011;11591;44.792;10.358;2023-04-06T00:55:27;7.18;;;3.50;;
22849;SDS011;11591;44.792;10.358;2023-04-06T00:57:55;10.73;;;3.60;;
22849;SDS011;11591;44.792;10.358;2023-04-06T01:00:24;7.43;;;3.15;;
22849;SDS011;11591;44.792;10.358;2023-04-06T01:02:55;6.15;;;3.17;;
22849;SDS011;11591;44.792;10.358;2023-04-06T01:05:26;6.22;;;3.67;;
22849;SDS011;11591;44.792;10.358;2023-04-06T01:07:56;6.53;;;3.90;;
22849;SDS011;11591;44.792;10.358;2023-04-06T01:10:26;6.30;;;3.42;;
22849;SDS011;11591;44.792;10.358;2023-04-06T01:13:19;5.55;;;3.20;;
22849;SDS011;11591;44.792;10.358;2023-04-06T01:15:54;6.30;;;3.33;;
22849;SDS011;11591;44.792;10.358;2023-04-06T01:18:27;6.45;;;3.50;;
22849;SDS011;11591;44.792;10.358;2023-04-06T01:21:07;7.00;;;3.30;;
22849;SDS011;11591;44.792;10.358;2023-04-06T01:23:35;4.20;;;2.83;;
22849;SDS011;11591;44.792;10.358;2023-04-06T01:26:01;7.35;;;3.17;;
22849;SDS011;11591;44.792;10.358;2023-04-06T01:28:29;7.45;;;3.42;;
22849;SDS011;11591;44.792;10.358;2023-04-06T01:31:05;4.97;;;2.92;;
22849;SDS011;11591;44.792;10.358;2023-04-06T01:33:43;6.50;;;3.50;;
22849;SDS011;11591;44.792;10.358;2023-04-06T01:36:12;8.05;;;3.30;;
22849;SDS011;11591;44.792;10.358;2023-04-06T01:38:38;4.82;;;3.10;;
22849;SDS011;11591;44.792;10.358;2023-04-06T01:41:05;7.32;;;3.10;;
22849;SDS011;11591;44.792;10.358;2023-04-06T01:43:43;8.57;;;3.13;;
22849;SDS011;11591;44.792;10.358;2023-04-06T01:46:10;6.72;;;3.17;;
22849;SDS011;11591;44.792;10.358;2023-04-06T01:48:39;5.40;;;3.35;;
22849;SDS011;11591;44.792;10.358;2023-04-06T01:51:17;5.70;;;3.13;;
22849;SDS011;11591;44.792;10.358;2023-04-06T01:53:51;5.95;;;3.30;;
22849;SDS011;11591;44.792;10.358;2023-04-06T01:56:19;5.57;;;3.10;;
22849;SDS011;11591;44.792;10.358;2023-04-06T01:58:55;6.47;;;3.00;;
22849;SDS011;11591;44.792;10.358;2023-04-06T02:01:22;5.72;;;3.40;;
22849;SDS011;11591;44.792;10.358;2023-04-06T02:03:53;7.32;;;3.35;;
22849;SDS011;11591;44.792;10.358;2023-04-06T02:06:20;5.57;;;3.20;;
22849;SDS011;11591;44.792;10.358;2023-04-06T02:08:46;6.95;;;3.42;;
22849;SDS011;11591;44.792;10.358;2023-04-06T02:11:12;10.60;;;3.53;;
22849;SDS011;11591;44.792;10.358;2023-04-06T02:13:44;8.18;;;3.38;;
22849;SDS011;11591;44.792;10.358;2023-04-06T02:16:10;7.20;;;3.35;;
22849;SDS011;11591;44.792;10.358;2023-04-06T02:18:36;9.75;;;3.42;;
22849;SDS011;11591;44.792;10.358;2023-04-06T02:21:02;7.75;;;3.70;;
22849;SDS011;11591;44.792;10.358;2023-04-06T02:23:28;5.85;;;3.40;;
22849;SDS011;11591;44.792;10.358;2023-04-06T02:25:55;6.28;;;3.63;;
22849;SDS011;11591;44.792;10.358;2023-04-06T02:28:21;9.05;;;3.78;;
22849;SDS011;11591;44.792;10.358;2023-04-06T02:30:47;7.70;;;4.13;;
22849;SDS011;11591;44.792;10.358;2023-04-06T02:33:13;8.40;;;3.92;;
22849;SDS011;11591;44.792;10.358;2023-04-06T02:35:45;7.20;;;3.58;;
22849;SDS011;11591;44.792;10.358;2023-04-06T02:38:11;7.40;;;3.92;;
22849;SDS011;11591;44.792;10.358;2023-04-06T02:40:37;8.88;;;4.10;;
22849;SDS011;11591;44.792;10.358;2023-04-06T02:43:15;6.10;;;3.53;;
22849;SDS011;11591;44.792;10.358;2023-04-06T02:45:42;8.95;;;4.70;;
22849;SDS011;11591;44.792;10.358;2023-04-06T02:48:09;8.93;;;4.13;;
22849;SDS011;11591;44.792;10.358;2023-04-06T02:50:35;8.38;;;4.30;;
22849;SDS011;11591;44.792;10.358;2023-04-06T02:53:04;10.05;;;4.65;;
22849;SDS011;11591;44.792;10.358;2023-04-06T02:55:31;9.75;;;4.35;;
22849;SDS011;11591;44.792;10.358;2023-04-06T02:57:57;7.85;;;4.20;;
22849;SDS011;11591;44.792;10.358;2023-04-06T03:00:28;10.45;;;5.13;;
22849;SDS011;11591;44.792;10.358;2023-04-06T03:02:54;9.30;;;4.50;;
22849;SDS011;11591;44.792;10.358;2023-04-06T03:05:20;9.32;;;4.60;;
22849;SDS011;11591;44.792;10.358;2023-04-06T03:07:46;8.93;;;4.35;;
22849;SDS011;11591;44.792;10.358;2023-04-06T03:10:20;9.30;;;4.80;;
22849;SDS011;11591;44.792;10.358;2023-04-06T03:12:47;10.10;;;4.35;;
22849;SDS011;11591;44.792;10.358;2023-04-06T03:15:20;8.52;;;4.28;;
22849;SDS011;11591;44.792;10.358;2023-04-06T03:17:50;10.88;;;4.85;;
22849;SDS011;11591;44.792;10.358;2023-04-06T03:20:38;9.48;;;4.70;;
22849;SDS011;11591;44.792;10.358;2023-04-06T03:23:04;7.22;;;4.43;;
22849;SDS011;11591;44.792;10.358;2023-04-06T03:25:35;7.22;;;4.35;;
22849;SDS011;11591;44.792;10.358;2023-04-06T03:28:04;6.70;;;4.03;;
22849;SDS011;11591;44.792;10.358;2023-04-06T03:30:33;6.38;;;4.13;;
22849;SDS011;11591;44.792;10.358;2023-04-06T03:32:59;8.93;;;4.32;;
22849;SDS011;11591;44.792;10.358;2023-04-06T03:35:29;7.97;;;4.20;;
22849;SDS011;11591;44.792;10.358;2023-04-06T03:37:56;7.90;;;4.10;;
22849;SDS011;11591;44.792;10.358;2023-04-06T03:40:23;7.90;;;4.03;;
22849;SDS011;11591;44.792;10.358;2023-04-06T03:42:49;8.40;;;4.28;;
22849;SDS011;11591;44.792;10.358;2023-04-06T03:45:16;7.53;;;4.03;;
22849;SDS011;11591;44.792;10.358;2023-04-06T03:47:48;7.80;;;4.18;;
22849;SDS011;11591;44.792;10.358;2023-04-06T03:50:14;7.00;;;3.83;;
22849;SDS011;11591;44.792;10.358;2023-04-06T03:52:40;6.22;;;3.75;;
22849;SDS011;11591;44.792;10.358;2023-04-06T03:55:06;7.45;;;3.28;;
22849;SDS011;11591;44.792;10.358;2023-04-06T03:57:34;7.82;;;3.65;;
22849;SDS011;11591;44.792;10.358;2023-04-06T04:00:00;6.88;;;3.67;;
22849;SDS011;11591;44.792;10.358;2023-04-06T04:02:25;8.10;;;3.47;;
22849;SDS011;11591;44.792;10.358;2023-04-06T04:04:51;7.18;;;3.58;;
22849;SDS011;11591;44.792;10.358;2023-04-06T04:07:17;8.25;;;3.45;;
22849;SDS011;11591;44.792;10.358;2023-04-06T04:09:43;10.25;;;3.50;;
22849;SDS011;11591;44.792;10.358;2023-04-06T04:12:10;6.43;;;3.30;;
22849;SDS011;11591;44.792;10.358;2023-04-06T04:14:35;7.45;;;3.22;;
22849;SDS011;11591;44.792;10.358;2023-04-06T04:17:01;8.88;;;3.55;;
22849;SDS011;11591;44.792;10.358;2023-04-06T04:19:27;7.68;;;3.33;;
22849;SDS011;11591;44.792;10.358;2023-04-06T04:21:54;5.93;;;3.20;;
22849;SDS011;11591;44.792;10.358;2023-04-06T04:24:28;8.95;;;3.60;;
22849;SDS011;11591;44.792;10.358;2023-04-06T04:26:54;7.00;;;3.20;;
22849;SDS011;11591;44.792;10.358;2023-04-06T04:29:21;7.22;;;3.17;;
22849;SDS011;11591;44.792;10.358;2023-04-06T04:31:49;4.50;;;2.40;;
22849;SDS011;11591;44.792;10.358;2023-04-06T04:34:16;5.32;;;3.10;;
22849;SDS011;11591;44.792;10.358;2023-04-06T04:36:45;6.35;;;3.47;;
22849;SDS011;11591;44.792;10.358;2023-04-06T04:39:17;5.80;;;3.20;;
22849;SDS011;11591;44.792;10.358;2023-04-06T04:41:48;5.05;;;2.33;;
22849;SDS011;11591;44.792;10.358;2023-04-06T04:44:14;9.38;;;2.63;;
22849;SDS011;11591;44.792;10.358;2023-04-06T04:46:41;5.82;;;2.85;;
22849;SDS011;11591;44.792;10.358;2023-04-06T04:49:09;5.60;;;1.92;;
22849;SDS011;11591;44.792;10.358;2023-04-06T04:51:35;3.05;;;2.00;;
22849;SDS011;11591;44.792;10.358;2023-04-06T04:54:12;7.10;;;2.47;;
22849;SDS011;11591;44.792;10.358;2023-04-06T04:56:40;6.55;;;2.35;;
22849;SDS011;11591;44.792;10.358;2023-04-06T04:59:22;7.82;;;2.17;;
22849;SDS011;11591;44.792;10.358;2023-04-06T05:01:55;7.53;;;2.20;;
22849;SDS011;11591;44.792;10.358;2023-04-06T05:04:28;10.07;;;2.17;;
22849;SDS011;11591;44.792;10.358;2023-04-06T05:07:07;5.75;;;2.25;;
22849;SDS011;11591;44.792;10.358;2023-04-06T05:09:36;3.08;;;1.98;;
22849;SDS011;11591;44.792;10.358;2023-04-06T05:12:03;4.43;;;2.30;;
22849;SDS011;11591;44.792;10.358;2023-04-06T05:14:33;5.65;;;2.17;;
22849;SDS011;11591;44.792;10.358;2023-04-06T05:17:02;3.67;;;1.95;;
22849;SDS011;11591;44.792;10.358;2023-04-06T05:19:29;5.20;;;2.30;;
22849;SDS011;11591;44.792;10.358;2023-04-06T05:21:55;6.82;;;2.20;;
22849;SDS011;11591;44.792;10.358;2023-04-06T05:24:22;4.90;;;2.28;;
22849;SDS011;11591;44.792;10.358;2023-04-06T05:26:48;4.85;;;2.10;;
22849;SDS011;11591;44.792;10.358;2023-04-06T05:29:20;8.50;;;2.47;;
22849;SDS011;11591;44.792;10.358;2023-04-06T05:31:46;6.80;;;2.35;;
22849;SDS011;11591;44.792;10.358;2023-04-06T05:34:12;5.57;;;2.42;;
22849;SDS011;11591;44.792;10.358;2023-04-06T05:36:38;4.70;;;2.60;;
22849;SDS011;11591;44.792;10.358;2023-04-06T05:39:15;6.25;;;2.78;;
22849;SDS011;11591;44.792;10.358;2023-04-06T05:41:48;5.82;;;2.50;;
22849;SDS011;11591;44.792;10.358;2023-04-06T05:44:18;6.25;;;2.90;;
22849;SDS011;11591;44.792;10.358;2023-04-06T05:46:49;5.57;;;2.58;;
22849;SDS011;11591;44.792;10.358;2023-04-06T05:49:16;8.90;;;2.63;;
22849;SDS011;11591;44.792;10.358;2023-04-06T05:51:42;8.05;;;3.05;;
22849;SDS011;11591;44.792;10.358;2023-04-06T05:54:08;10.00;;;3.63;;
22849;SDS011;11591;44.792;10.358;2023-04-06T05:56:34;10.10;;;3.28;;
22849;SDS011;11591;44.792;10.358;2023-04-06T05:59:01;6.07;;;3.15;;
22849;SDS011;11591;44.792;10.358;2023-04-06T06:01:28;7.15;;;3.03;;
22849;SDS011;11591;44.792;10.358;2023-04-06T06:03:54;21.10;;;3.38;;
22849;SDS011;11591;44.792;10.358;2023-04-06T06:06:23;14.68;;;3.58;;
22849;SDS011;11591;44.792;10.358;2023-04-06T06:09:07;13.57;;;3.97;;
22849;SDS011;11591;44.792;10.358;2023-04-06T06:11:38;10.77;;;3.92;;
22849;SDS011;11591;44.792;10.358;2023-04-06T06:14:06;11.88;;;4.03;;
22849;SDS011;11591;44.792;10.358;2023-04-06T06:16:35;11.23;;;3.90;;
22849;SDS011;11591;44.792;10.358;2023-04-06T06:19:01;7.57;;;4.00;;
22849;SDS011;11591;44.792;10.358;2023-04-06T06:21:28;10.68;;;3.67;;
22849;SDS011;11591;44.792;10.358;2023-04-06T06:23:53;13.38;;;5.13;;
22849;SDS011;11591;44.792;10.358;2023-04-06T06:26:20;10.25;;;4.53;;
22849;SDS011;11591;44.792;10.358;2023-04-06T06:28:48;13.32;;;4.97;;
22849;SDS011;11591;44.792;10.358;2023-04-06T06:31:14;16.63;;;5.22;;
22849;SDS011;11591;44.792;10.358;2023-04-06T06:33:42;14.60;;;4.95;;
22849;SDS011;11591;44.792;10.358;2023-04-06T06:36:08;12.93;;;4.85;;
22849;SDS011;11591;44.792;10.358;2023-04-06T06:38:33;12.90;;;5.53;;
22849;SDS011;11591;44.792;10.358;2023-04-06T06:40:59;10.48;;;4.72;;
22849;SDS011;11591;44.792;10.358;2023-04-06T06:43:29;13.98;;;5.80;;
22849;SDS011;11591;44.792;10.358;2023-04-06T06:46:00;14.73;;;5.60;;
22849;SDS011;11591;44.792;10.358;2023-04-06T06:48:25;12.85;;;5.72;;
22849;SDS011;11591;44.792;10.358;2023-04-06T06:50:52;10.88;;;4.65;;
22849;SDS011;11591;44.792;10.358;2023-04-06T06:53:18;12.70;;;5.22;;
22849;SDS011;11591;44.792;10.358;2023-04-06T06:55:45;10.35;;;5.20;;
22849;SDS011;11591;44.792;10.358;2023-04-06T06:58:11;11.30;;;5.55;;
22849;SDS011;11591;44.792;10.358;2023-04-06T07:00:37;9.75;;;4.93;;
22849;SDS011;11591;44.792;10.358;2023-04-06T07:03:03;9.05;;;5.43;;
22849;SDS011;11591;44.792;10.358;2023-04-06T07:05:29;10.93;;;5.55;;
22849;SDS011;11591;44.792;10.358;2023-04-06T07:07:57;8.68;;;4.82;;
22849;SDS011;11591;44.792;10.358;2023-04-06T07:10:24;16.48;;;5.28;;
22849;SDS011;11591;44.792;10.358;2023-04-06T07:12:51;10.05;;;5.13;;
22849;SDS011;11591;44.792;10.358;2023-04-06T07:15:16;13.90;;;5.40;;
22849;SDS011;11591;44.792;10.358;2023-04-06T07:17:43;11.45;;;5.18;;
22849;SDS011;11591;44.792;10.358;2023-04-06T07:20:11;12.95;;;5.55;;
22849;SDS011;11591;44.792;10.358;2023-04-06T07:22:38;12.60;;;5.63;;
22849;SDS011;11591;44.792;10.358;2023-04-06T07:25:06;11.75;;;4.82;;
22849;SDS011;11591;44.792;10.358;2023-04-06T07:27:32;14.45;;;6.13;;
22849;SDS011;11591;44.792;10.358;2023-04-06T07:29:58;14.98;;;5.28;;
22849;SDS011;11591;44.792;10.358;2023-04-06T07:32:25;11.35;;;5.50;;
22849;SDS011;11591;44.792;10.358;2023-04-06T07:34:52;11.90;;;5.65;;
22849;SDS011;11591;44.792;10.358;2023-04-06T07:37:17;11.40;;;5.65;;
22849;SDS011;11591;44.792;10.358;2023-04-06T07:39:44;12.85;;;5.60;;
22849;SDS011;11591;44.792;10.358;2023-04-06T07:42:10;15.02;;;6.50;;
22849;SDS011;11591;44.792;10.358;2023-04-06T07:44:36;18.67;;;9.18;;
22849;SDS011;11591;44.792;10.358;2023-04-06T07:47:02;15.77;;;6.88;;
22849;SDS011;11591;44.792;10.358;2023-04-06T07:49:28;13.50;;;7.25;;
22849;SDS011;11591;44.792;10.358;2023-04-06T07:51:55;20.23;;;8.48;;
22849;SDS011;11591;44.792;10.358;2023-04-06T07:54:21;20.15;;;8.15;;
22849;SDS011;11591;44.792;10.358;2023-04-06T07:56:47;20.65;;;8.20;;
22849;SDS011;11591;44.792;10.358;2023-04-06T07:59:13;11.23;;;5.88;;
22849;SDS011;11591;44.792;10.358;2023-04-06T08:01:38;11.88;;;6.40;;
22849;SDS011;11591;44.792;10.358;2023-04-06T08:04:04;16.08;;;6.70;;
22849;SDS011;11591;44.792;10.358;2023-04-06T08:06:30;10.20;;;5.40;;
22849;SDS011;11591;44.792;10.358;2023-04-06T08:08:56;14.00;;;5.75;;
22849;SDS011;11591;44.792;10.358;2023-04-06T08:11:22;13.45;;;5.90;;
22849;SDS011;11591;44.792;10.358;2023-04-06T08:13:48;14.15;;;5.82;;
22849;SDS011;11591;44.792;10.358;2023-04-06T08:16:13;10.65;;;5.22;;
22849;SDS011;11591;44.792;10.358;2023-04-06T08:18:40;16.33;;;5.25;;
22849;SDS011;11591;44.792;10.358;2023-04-06T08:21:05;23.00;;;5.75;;
22849;SDS011;11591;44.792;10.358;2023-04-06T08:23:31;10.45;;;5.30;;
22849;SDS011;11591;44.792;10.358;2023-04-06T08:25:57;11.45;;;5.30;;
22849;SDS011;11591;44.792;10.358;2023-04-06T08:28:23;8.40;;;4.38;;
22849;SDS011;11591;44.792;10.358;2023-04-06T08:30:49;12.38;;;4.43;;
22849;SDS011;11591;44.792;10.358;2023-04-06T08:33:14;6.72;;;3.78;;
22849;SDS011;11591;44.792;10.358;2023-04-06T08:35:40;7.75;;;2.95;;
22849;SDS011;11591;44.792;10.358;2023-04-06T08:38:06;5.53;;;3.50;;
22849;SDS011;11591;44.792;10.358;2023-04-06T08:40:38;8.52;;;3.75;;
22849;SDS011;11591;44.792;10.358;2023-04-06T08:43:08;6.72;;;3.65;;
22849;SDS011;11591;44.792;10.358;2023-04-06T08:45:38;7.47;;;3.60;;
22849;SDS011;11591;44.792;10.358;2023-04-06T08:48:05;8.35;;;3.47;;
22849;SDS011;11591;44.792;10.358;2023-04-06T08:50:35;6.88;;;3.60;;
22849;SDS011;11591;44.792;10.358;2023-04-06T08:53:01;8.10;;;3.42;;
22849;SDS011;11591;44.792;10.358;2023-04-06T08:55:27;8.57;;;3.58;;
22849;SDS011;11591;44.792;10.358;2023-04-06T08:57:53;5.22;;;3.30;;
22849;SDS011;11591;44.792;10.358;2023-04-06T09:00:21;7.72;;;3.47;;
22849;SDS011;11591;44.792;10.358;2023-04-06T09:02:48;6.47;;;3.30;;
22849;SDS011;11591;44.792;10.358;2023-04-06T09:05:15;7.15;;;3.17;;
22849;SDS011;11591;44.792;10.358;2023-04-06T09:07:41;7.82;;;3.50;;
22849;SDS011;11591;44.792;10.358;2023-04-06T09:10:07;7.90;;;3.55;;
22849;SDS011;11591;44.792;10.358;2023-04-06T09:12:34;9.68;;;4.47;;
22849;SDS011;11591;44.792;10.358;2023-04-06T09:15:00;6.13;;;3.20;;
22849;SDS011;11591;44.792;10.358;2023-04-06T09:17:30;5.70;;;3.00;;
22849;SDS011;11591;44.792;10.358;2023-04-06T09:20:02;6.75;;;3.20;;
22849;SDS011;11591;44.792;10.358;2023-04-06T09:22:38;5.78;;;3.20;;
22849;SDS011;11591;44.792;10.358;2023-04-06T09:25:04;6.47;;;3.20;;
22849;SDS011;11591;44.792;10.358;2023-04-06T09:27:34;5.25;;;3.20;;
22849;SDS011;11591;44.792;10.358;2023-04-06T09:30:04;6.78;;;2.83;;
22849;SDS011;11591;44.792;10.358;2023-04-06T09:32:50;7.18;;;2.80;;
22849;SDS011;11591;44.792;10.358;2023-04-06T09:35:18;6.10;;;3.00;;
22849;SDS011;11591;44.792;10.358;2023-04-06T09:37:47;6.55;;;2.92;;
22849;SDS011;11591;44.792;10.358;2023-04-06T09:40:14;6.65;;;3.10;;
22849;SDS011;11591;44.792;10.358;2023-04-06T09:42:42;5.63;;;3.30;;
22849;SDS011;11591;44.792;10.358;2023-04-06T09:45:12;4.65;;;2.80;;
22849;SDS011;11591;44.792;10.358;2023-04-06T09:47:39;8.73;;;3.20;;
22849;SDS011;11591;44.792;10.358;2023-04-06T09:50:08;7.05;;;3.60;;
22849;SDS011;11591;44.792;10.358;2023-04-06T09:55:32;6.00;;;2.97;;
22849;SDS011;11591;44.792;10.358;2023-04-06T09:58:04;8.77;;;3.00;;
22849;SDS011;11591;44.792;10.358;2023-04-06T10:00:43;11.10;;;3.20;;
22849;SDS011;11591;44.792;10.358;2023-04-06T10:05:59;5.97;;;3.25;;
22849;SDS011;11591;44.792;10.358;2023-04-06T10:08:29;9.10;;;3.55;;
22849;SDS011;11591;44.792;10.358;2023-04-06T10:11:00;7.78;;;3.30;;
22849;SDS011;11591;44.792;10.358;2023-04-06T10:13:27;6.68;;;3.35;;
22849;SDS011;11591;44.792;10.358;2023-04-06T10:15:53;8.57;;;3.55;;
22849;SDS011;11591;44.792;10.358;2023-04-06T10:18:20;6.28;;;3.42;;
22849;SDS011;11591;44.792;10.358;2023-04-06T10:20:51;8.70;;;3.53;;
22849;SDS011;11591;44.792;10.358;2023-04-06T10:26:02;5.75;;;3.45;;
22849;SDS011;11591;44.792;10.358;2023-04-06T10:28:32;7.35;;;3.80;;
22849;SDS011;11591;44.792;10.358;2023-04-06T10:31:01;8.98;;;3.75;;
22849;SDS011;11591;44.792;10.358;2023-04-06T10:33:30;7.45;;;3.92;;
22849;SDS011;11591;44.792;10.358;2023-04-06T10:35:56;14.48;;;3.85;;
22849;SDS011;11591;44.792;10.358;2023-04-06T10:38:32;8.48;;;4.22;;
22849;SDS011;11591;44.792;10.358;2023-04-06T10:41:06;8.45;;;4.15;;
22849;SDS011;11591;44.792;10.358;2023-04-06T10:43:34;7.40;;;4.43;;
22849;SDS011;11591;44.792;10.358;2023-04-06T10:46:05;6.35;;;3.85;;
22849;SDS011;11591;44.792;10.358;2023-04-06T10:48:42;6.55;;;4.07;;
22849;SDS011;11591;44.792;10.358;2023-04-06T10:51:15;9.88;;;3.88;;
22849;SDS011;11591;44.792;10.358;2023-04-06T10:53:42;7.50;;;4.03;;
22849;SDS011;11591;44.792;10.358;2023-04-06T10:56:14;6.72;;;3.85;;
22849;SDS011;11591;44.792;10.358;2023-04-06T10:58:47;6.72;;;3.95;;
22849;SDS011;11591;44.792;10.358;2023-04-06T11:01:15;7.15;;;4.35;;
22849;SDS011;11591;44.792;10.358;2023-04-06T11:03:46;9.02;;;4.10;;
22849;SDS011;11591;44.792;10.358;2023-04-06T11:06:20;7.03;;;4.38;;
22849;SDS011;11591;44.792;10.358;2023-04-06T11:08:47;7.35;;;3.80;;
22849;SDS011;11591;44.792;10.358;2023-04-06T11:11:14;10.80;;;4.60;;
22849;SDS011;11591;44.792;10.358;2023-04-06T11:13:55;8.85;;;4.85;;
22849;SDS011;11591;44.792;10.358;2023-04-06T11:16:23;9.98;;;4.60;;
22849;SDS011;11591;44.792;10.358;2023-04-06T11:18:51;8.10;;;4.18;;
22849;SDS011;11591;44.792;10.358;2023-04-06T11:24:07;8.40;;;4.72;;
22849;SDS011;11591;44.792;10.358;2023-04-06T11:26:46;9.82;;;4.88;;
22849;SDS011;11591;44.792;10.358;2023-04-06T11:29:26;9.40;;;5.05;;
22849;SDS011;11591;44.792;10.358;2023-04-06T11:31:57;9.60;;;5.25;;
22849;SDS011;11591;44.792;10.358;2023-04-06T11:34:23;10.45;;;5.65;;
22849;SDS011;11591;44.792;10.358;2023-04-06T11:36:57;10.68;;;5.47;;
22849;SDS011;11591;44.792;10.358;2023-04-06T11:39:25;10.95;;;5.22;;
22849;SDS011;11591;44.792;10.358;2023-04-06T11:41:52;8.45;;;5.15;;
22849;SDS011;11591;44.792;10.358;2023-04-06T11:44:28;11.80;;;5.30;;
22849;SDS011;11591;44.792;10.358;2023-04-06T11:46:54;11.82;;;5.90;;
22849;SDS011;11591;44.792;10.358;2023-04-06T11:49:22;9.77;;;5.55;;
22849;SDS011;11591;44.792;10.358;2023-04-06T11:51:51;11.80;;;5.72;;
22849;SDS011;11591;44.792;10.358;2023-04-06T11:54:17;13.50;;;6.35;;
22849;SDS011;11591;44.792;10.358;2023-04-06T11:56:45;10.52;;;5.78;;
22849;SDS011;11591;44.792;10.358;2023-04-06T11:59:12;13.38;;;6.20;;
22849;SDS011;11591;44.792;10.358;2023-04-06T12:01:44;11.80;;;5.60;;
22849;SDS011;11591;44.792;10.358;2023-04-06T12:04:11;9.73;;;5.47;;
22849;SDS011;11591;44.792;10.358;2023-04-06T12:06:37;9.07;;;5.20;;
22849;SDS011;11591;44.792;10.358;2023-04-06T12:09:03;9.52;;;5.50;;
22849;SDS011;11591;44.792;10.358;2023-04-06T12:11:28;10.80;;;5.78;;
22849;SDS011;11591;44.792;10.358;2023-04-06T12:13:54;10.38;;;5.97;;
22849;SDS011;11591;44.792;10.358;2023-04-06T12:16:20;12.23;;;6.28;;
22849;SDS011;11591;44.792;10.358;2023-04-06T12:18:46;16.10;;;6.50;;
22849;SDS011;11591;44.792;10.358;2023-04-06T12:21:11;10.55;;;6.18;;
22849;SDS011;11591;44.792;10.358;2023-04-06T12:23:37;11.38;;;6.05;;
22849;SDS011;11591;44.792;10.358;2023-04-06T12:26:03;10.23;;;6.60;;
22849;SDS011;11591;44.792;10.358;2023-04-06T12:28:29;12.75;;;6.88;;
22849;SDS011;11591;44.792;10.358;2023-04-06T12:30:55;12.35;;;6.57;;
22849;SDS011;11591;44.792;10.358;2023-04-06T12:33:21;13.95;;;6.57;;
22849;SDS011;11591;44.792;10.358;2023-04-06T12:35:46;13.00;;;6.10;;
22849;SDS011;11591;44.792;10.358;2023-04-06T12:38:12;10.27;;;6.10;;
22849;SDS011;11591;44.792;10.358;2023-04-06T12:40:39;9.98;;;6.40;;
22849;SDS011;11591;44.792;10.358;2023-04-06T12:43:04;11.00;;;6.35;;
22849;SDS011;11591;44.792;10.358;2023-04-06T12:45:31;17.67;;;6.53;;
22849;SDS011;11591;44.792;10.358;2023-04-06T12:47:57;14.50;;;6.13;;
22849;SDS011;11591;44.792;10.358;2023-04-06T12:50:23;15.93;;;6.63;;
22849;SDS011;11591;44.792;10.358;2023-04-06T12:52:49;10.43;;;6.28;;
22849;SDS011;11591;44.792;10.358;2023-04-06T12:55:15;12.23;;;6.97;;
22849;SDS011;11591;44.792;10.358;2023-04-06T12:57:41;15.43;;;7.18;;
22849;SDS011;11591;44.792;10.358;2023-04-06T13:00:07;14.05;;;6.65;;
22849;SDS011;11591;44.792;10.358;2023-04-06T13:02:33;12.57;;;6.38;;
22849;SDS011;11591;44.792;10.358;2023-04-06T13:04:59;11.07;;;5.95;;
22849;SDS011;11591;44.792;10.358;2023-04-06T13:07:25;14.15;;;6.40;;
22849;SDS011;11591;44.792;10.358;2023-04-06T13:09:51;10.80;;;6.32;;
22849;SDS011;11591;44.792;10.358;2023-04-06T13:12:17;13.65;;;6.75;;
22849;SDS011;11591;44.792;10.358;2023-04-06T13:14:43;11.50;;;5.93;;
22849;SDS011;11591;44.792;10.358;2023-04-06T13:17:09;10.15;;;6.28;;
22849;SDS011;11591;44.792;10.358;2023-04-06T13:19:35;10.18;;;6.45;;
22849;SDS011;11591;44.792;10.358;2023-04-06T13:22:01;13.55;;;6.70;;
22849;SDS011;11591;44.792;10.358;2023-04-06T13:24:27;12.07;;;6.25;;
22849;SDS011;11591;44.792;10.358;2023-04-06T13:26:53;11.30;;;6.80;;
22849;SDS011;11591;44.792;10.358;2023-04-06T13:29:19;10.90;;;6.40;;
22849;SDS011;11591;44.792;10.358;2023-04-06T13:31:45;11.52;;;6.05;;
22849;SDS011;11591;44.792;10.358;2023-04-06T13:34:11;11.45;;;6.40;;
22849;SDS011;11591;44.792;10.358;2023-04-06T13:36:37;13.38;;;6.82;;
22849;SDS011;11591;44.792;10.358;2023-04-06T13:39:05;9.88;;;6.53;;
22849;SDS011;11591;44.792;10.358;2023-04-06T13:41:31;12.90;;;6.65;;
22849;SDS011;11591;44.792;10.358;2023-04-06T13:43:57;10.73;;;6.82;;
22849;SDS011;11591;44.792;10.358;2023-04-06T13:46:23;12.05;;;6.80;;
22849;SDS011;11591;44.792;10.358;2023-04-06T13:48:49;11.35;;;6.35;;
22849;SDS011;11591;44.792;10.358;2023-04-06T13:51:16;10.35;;;6.40;;
22849;SDS011;11591;44.792;10.358;2023-04-06T13:53:41;14.98;;;7.07;;
22849;SDS011;11591;44.792;10.358;2023-04-06T13:56:07;17.73;;;6.40;;
22849;SDS011;11591;44.792;10.358;2023-04-06T13:58:33;10.75;;;6.43;;
22849;SDS011;11591;44.792;10.358;2023-04-06T14:01:01;11.38;;;6.88;;
22849;SDS011;11591;44.792;10.358;2023-04-06T14:04:24;14.57;;;6.38;;
22849;SDS011;11591;44.792;10.358;2023-04-06T14:06:50;10.88;;;7.30;;
22849;SDS011;11591;44.792;10.358;2023-04-06T14:09:16;11.93;;;7.15;;
22849;SDS011;11591;44.792;10.358;2023-04-06T14:11:42;12.57;;;7.15;;
22849;SDS011;11591;44.792;10.358;2023-04-06T14:14:07;14.50;;;6.95;;
22849;SDS011;11591;44.792;10.358;2023-04-06T14:16:33;13.70;;;6.68;;
22849;SDS011;11591;44.792;10.358;2023-04-06T14:18:59;12.88;;;6.60;;
22849;SDS011;11591;44.792;10.358;2023-04-06T14:21:25;12.00;;;7.00;;
22849;SDS011;11591;44.792;10.358;2023-04-06T14:23:51;11.00;;;6.70;;
22849;SDS011;11591;44.792;10.358;2023-04-06T14:26:17;10.68;;;6.10;;
22849;SDS011;11591;44.792;10.358;2023-04-06T14:28:44;10.32;;;6.00;;
22849;SDS011;11591;44.792;10.358;2023-04-06T14:31:12;14.32;;;6.85;;
22849;SDS011;11591;44.792;10.358;2023-04-06T14:33:40;10.13;;;6.20;;
22849;SDS011;11591;44.792;10.358;2023-04-06T14:36:06;11.38;;;6.47;;
22849;SDS011;11591;44.792;10.358;2023-04-06T14:38:33;11.02;;;6.05;;
22849;SDS011;11591;44.792;10.358;2023-04-06T14:40:59;9.20;;;5.68;;
22849;SDS011;11591;44.792;10.358;2023-04-06T14:43:25;14.05;;;6.75;;
22849;SDS011;11591;44.792;10.358;2023-04-06T14:45:52;16.83;;;6.60;;